sensor_id;sensor_type;location;lat;lon;timestamp;temperature;humidity
24384;DHT22;12504;52.870;8.798;2023-12-04T09:33:36;0.20;99.90
24384;DHT22;12504;52.870;8.798;2023-12-04T09:36:02;0.30;99.90
24384;DHT22;12504;52.870;8.798;2023-12-04T09:38:29;0.30;99.90
24384;DHT22;12504;52.870;8.798;2023-12-04T09:40:58;0.30;99.90
24384;DHT22;12504;52.870;8.798;2023-12-04T09:43:25;0.30;99.90
24384;DHT22;12504;52.870;8.798;2023-12-04T09:45:52;0.30;99.90
24384;DHT22;12504;52.870;8.798;2023-12-04T09:48:18;0.30;99.90
24384;DHT22;12504;52.870;8.798;2023-12-04T09:50:44;0.30;99.90
24384;DHT22;12504;52.870;8.798;2023-12-04T09:53:12;0.40;99.90
24384;DHT22;12504;52.870;8.798;2023-12-04T09:55:39;0.40;99.90
24384;DHT22;12504;52.870;8.798;2023-12-04T09:58:05;0.50;99.90
24384;DHT22;12504;52.870;8.798;2023-12-04T10:00:32;0.50;99.90
24384;DHT22;12504;52.870;8.798;2023-12-04T10:02:58;0.60;99.90
24384;DHT22;12504;52.870;8.798;2023-12-04T10:05:25;0.60;99.90
24384;DHT22;12504;52.870;8.798;2023-12-04T10:07:50;0.60;99.90
24384;DHT22;12504;52.870;8.798;2023-12-04T10:10:16;0.70;99.90
24384;DHT22;12504;52.870;8.798;2023-12-04T10:12:43;0.70;99.90
24384;DHT22;12504;52.870;8.798;2023-12-04T10:15:10;0.60;99.90
24384;DHT22;12504;52.870;8.798;2023-12-04T10:17:40;0.60;99.90
24384;DHT22;12504;52.870;8.798;2023-12-04T10:20:07;0.60;99.90
24384;DHT22;12504;52.870;8.798;2023-12-04T10:22:51;0.50;99.90
24384;DHT22;12504;52.870;8.798;2023-12-04T10:25:18;0.50;99.90
24384;DHT22;12504;52.870;8.798;2023-12-04T10:27:45;0.60;99.90
24384;DHT22;12504;52.870;8.798;2023-12-04T10:30:22;0.60;99.90
24384;DHT22;12504;52.870;8.798;2023-12-04T10:32:48;0.60;99.90
24384;DHT22;12504;52.870;8.798;2023-12-04T10:35:14;0.60;99.90
24384;DHT22;12504;52.870;8.798;2023-12-04T10:37:40;0.60;99.90
24384;DHT22;12504;52.870;8.798;2023-12-04T10:40:06;0.60;99.90
24384;DHT22;12504;52.870;8.798;2023-12-04T10:42:34;0.70;99.90
24384;DHT22;12504;52.870;8.798;2023-12-04T10:45:01;0.70;99.90
24384;DHT22;12504;52.870;8.798;2023-12-04T10:47:29;0.80;99.90
24384;DHT22;12504;52.870;8.798;2023-12-04T10:49:58;0.90;99.90
24384;DHT22;12504;52.870;8.798;2023-12-04T10:52:24;0.90;99.90
24384;DHT22;12504;52.870;8.798;2023-12-04T10:54:50;1.00;99.90
24384;DHT22;12504;52.870;8.798;2023-12-04T10:57:26;1.00;99.90
24384;DHT22;12504;52.870;8.798;2023-12-04T10:59:58;1.00;99.90
24384;DHT22;12504;52.870;8.798;2023-12-04T11:02:26;1.10;99.90
24384;DHT22;12504;52.870;8.798;2023-12-04T11:04:55;1.00;99.90
24384;DHT22;12504;52.870;8.798;2023-12-04T11:07:24;0.90;99.90
24384;DHT22;12504;52.870;8.798;2023-12-04T11:09:51;0.90;99.90
24384;DHT22;12504;52.870;8.798;2023-12-04T11:12:18;0.80;99.90
24384;DHT22;12504;52.870;8.798;2023-12-04T11:14:53;0.90;99.90
24384;DHT22;12504;52.870;8.798;2023-12-04T11:17:21;0.90;99.90
24384;DHT22;12504;52.870;8.798;2023-12-04T11:19:55;0.90;99.90
24384;DHT22;12504;52.870;8.798;2023-12-04T11:22:21;0.90;99.90
24384;DHT22;12504;52.870;8.798;2023-12-04T11:24:47;1.00;99.90
24384;DHT22;12504;52.870;8.798;2023-12-04T11:27:17;1.00;99.90
24384;DHT22;12504;52.870;8.798;2023-12-04T11:29:45;1.00;99.90
24384;DHT22;12504;52.870;8.798;2023-12-04T11:32:15;1.00;99.90
24384;DHT22;12504;52.870;8.798;2023-12-04T11:35:00;1.00;99.90
24384;DHT22;12504;52.870;8.798;2023-12-04T11:37:28;1.10;99.90
24384;DHT22;12504;52.870;8.798;2023-12-04T11:39:54;1.10;99.90
24384;DHT22;12504;52.870;8.798;2023-12-04T11:42:23;1.10;99.90
24384;DHT22;12504;52.870;8.798;2023-12-04T11:44:49;1.10;99.90
24384;DHT22;12504;52.870;8.798;2023-12-04T11:47:20;1.10;99.90
24384;DHT22;12504;52.870;8.798;2023-12-04T11:49:46;1.10;99.90
24384;DHT22;12504;52.870;8.798;2023-12-04T11:52:12;1.10;99.90
24384;DHT22;12504;52.870;8.798;2023-12-04T11:55:00;1.10;99.90
24384;DHT22;12504;52.870;8.798;2023-12-04T11:57:38;1.10;99.90
24384;DHT22;12504;52.870;8.798;2023-12-04T12:00:21;1.10;99.90
24384;DHT22;12504;52.870;8.798;2023-12-04T12:03:00;1.00;99.90
24384;DHT22;12504;52.870;8.798;2023-12-04T12:05:27;1.00;99.90
24384;DHT22;12504;52.870;8.798;2023-12-04T12:07:52;1.00;99.90
24384;DHT22;12504;52.870;8.798;2023-12-04T12:10:18;1.00;99.90
24384;DHT22;12504;52.870;8.798;2023-12-04T12:12:44;1.00;99.90
